createdAt,value
2018-07-11T00:00:20.421Z,0
2018-07-11T00:01:00.941Z,0
2018-07-11T00:01:41.465Z,0
2018-07-11T00:02:22.015Z,0
2018-07-11T00:03:02.514Z,0
2018-07-11T00:03:43.042Z,0
2018-07-11T00:04:23.591Z,0
2018-07-11T00:05:04.089Z,0
2018-07-11T00:05:44.610Z,0
2018-07-11T00:06:25.189Z,0
2018-07-11T00:07:05.693Z,0
2018-07-11T00:07:46.200Z,0
2018-07-11T00:08:26.707Z,0
2018-07-11T00:09:07.217Z,0
2018-07-11T00:09:47.742Z,0
2018-07-11T00:10:28.271Z,0
2018-07-11T00:11:08.806Z,0
2018-07-11T00:11:49.337Z,0
2018-07-11T00:12:29.862Z,0
2018-07-11T00:13:10.392Z,0
2018-07-11T00:13:50.915Z,0
2018-07-11T00:14:31.450Z,0
2018-07-11T00:15:11.974Z,0
2018-07-11T00:15:52.510Z,0
2018-07-11T00:16:33.039Z,0
2018-07-11T00:17:13.557Z,0
2018-07-11T00:17:54.088Z,0
2018-07-11T00:18:34.599Z,0
2018-07-11T00:19:15.121Z,0
2018-07-11T00:19:55.643Z,0
2018-07-11T00:20:36.181Z,0
2018-07-11T00:21:16.720Z,0
2018-07-11T00:21:57.255Z,0
2018-07-11T00:22:37.788Z,0
2018-07-11T00:23:18.314Z,0
2018-07-11T00:23:58.847Z,0
2018-07-11T00:24:39.370Z,0
2018-07-11T00:25:19.900Z,0
2018-07-11T00:26:00.429Z,0
2018-07-11T00:26:40.959Z,0
2018-07-11T00:27:21.491Z,0
2018-07-11T00:28:02.010Z,0
2018-07-11T00:28:42.531Z,0
2018-07-11T00:29:23.073Z,0
2018-07-11T00:30:03.585Z,0
2018-07-11T00:30:44.101Z,0
2018-07-11T00:31:24.624Z,0
2018-07-11T00:32:05.146Z,0
2018-07-11T00:32:45.681Z,0
2018-07-11T00:33:26.203Z,0
2018-07-11T00:34:06.726Z,0
2018-07-11T00:34:47.252Z,0
2018-07-11T00:35:27.787Z,0
2018-07-11T00:36:08.356Z,0
2018-07-11T00:36:48.866Z,0
2018-07-11T00:37:29.595Z,0
2018-07-11T00:38:09.909Z,0
2018-07-11T00:38:50.434Z,0
2018-07-11T00:39:30.948Z,0
2018-07-11T00:40:11.471Z,0
2018-07-11T00:40:51.994Z,0
2018-07-11T00:41:32.508Z,0
2018-07-11T00:42:13.026Z,0
2018-07-11T00:42:53.545Z,0
2018-07-11T00:43:34.085Z,0
2018-07-11T00:44:14.586Z,0
2018-07-11T00:44:55.105Z,0
2018-07-11T00:45:35.619Z,0
2018-07-11T00:46:16.153Z,0
2018-07-11T00:46:56.680Z,0
2018-07-11T00:47:37.206Z,0
2018-07-11T00:48:17.751Z,0
2018-07-11T00:48:58.283Z,0
2018-07-11T00:49:38.872Z,0
2018-07-11T00:50:19.355Z,0
2018-07-11T00:50:59.872Z,0
2018-07-11T00:51:40.402Z,0
2018-07-11T00:52:20.928Z,0
2018-07-11T00:53:01.469Z,0
2018-07-11T00:53:41.999Z,0
2018-07-11T00:54:22.513Z,0
2018-07-11T00:55:03.044Z,0
2018-07-11T00:55:43.571Z,0
2018-07-11T00:56:24.099Z,0
2018-07-11T00:57:04.630Z,0
2018-07-11T00:57:45.183Z,0
2018-07-11T00:58:25.709Z,0
2018-07-11T00:59:06.233Z,0
2018-07-11T01:01:24.807Z,0
2018-07-11T01:02:05.338Z,0
2018-07-11T01:02:45.868Z,0
2018-07-11T01:03:26.404Z,0
2018-07-11T01:04:06.926Z,0
2018-07-11T01:04:47.453Z,0
2018-07-11T01:05:27.965Z,0
2018-07-11T01:06:08.499Z,0
2018-07-11T01:06:49.008Z,0
2018-07-11T01:07:29.527Z,0
2018-07-11T01:08:10.050Z,0
2018-07-11T01:08:50.576Z,0
2018-07-11T01:09:31.098Z,0
2018-07-11T01:10:11.619Z,0
2018-07-11T01:10:52.143Z,0
2018-07-11T01:11:32.660Z,0
2018-07-11T01:12:13.179Z,0
2018-07-11T01:12:53.711Z,0
2018-07-11T01:13:34.244Z,0
2018-07-11T01:14:14.765Z,0
2018-07-11T01:14:55.277Z,0
2018-07-11T01:15:35.787Z,0
2018-07-11T01:16:16.306Z,0
2018-07-11T01:16:56.830Z,0
2018-07-11T01:17:37.357Z,0
2018-07-11T01:18:17.893Z,0
2018-07-11T01:18:58.417Z,0
2018-07-11T01:19:38.952Z,0
2018-07-11T01:20:19.467Z,0
2018-07-11T01:20:59.999Z,0
2018-07-11T01:21:40.506Z,0
2018-07-11T01:22:21.045Z,0
2018-07-11T01:23:01.572Z,0
2018-07-11T01:23:42.099Z,0
2018-07-11T01:24:22.617Z,0
2018-07-11T01:25:03.123Z,0
2018-07-11T01:25:43.660Z,0
2018-07-11T01:26:25.040Z,0
2018-07-11T01:27:05.561Z,0
2018-07-11T01:27:46.066Z,0
2018-07-11T01:28:26.644Z,0
2018-07-11T01:29:07.184Z,0
2018-07-11T01:29:47.700Z,0
2018-07-11T01:30:28.213Z,0
2018-07-11T01:31:08.724Z,0
2018-07-11T01:31:49.245Z,0
2018-07-11T01:32:29.759Z,0
2018-07-11T01:33:10.277Z,0
2018-07-11T01:33:50.791Z,0
2018-07-11T01:34:31.313Z,0
2018-07-11T01:35:11.833Z,0
2018-07-11T01:35:52.350Z,0
2018-07-11T01:36:32.858Z,0
2018-07-11T01:37:13.373Z,0
2018-07-11T01:37:53.890Z,0
2018-07-11T01:38:34.412Z,0
2018-07-11T01:39:14.923Z,0
2018-07-11T01:39:55.448Z,0
2018-07-11T01:40:35.969Z,0
2018-07-11T01:41:16.479Z,0
2018-07-11T01:41:57.012Z,0
2018-07-11T01:42:37.534Z,0
2018-07-11T01:43:18.066Z,0
2018-07-11T01:43:58.578Z,0
2018-07-11T01:44:39.093Z,0
2018-07-11T01:45:19.611Z,0
2018-07-11T01:46:00.152Z,0
2018-07-11T01:46:40.673Z,0
2018-07-11T01:47:21.200Z,0
2018-07-11T01:48:01.717Z,0
2018-07-11T01:48:42.244Z,0
2018-07-11T01:49:22.763Z,0
2018-07-11T01:50:03.272Z,0
2018-07-11T01:50:43.801Z,0
2018-07-11T01:51:24.323Z,0
2018-07-11T01:52:04.831Z,0
2018-07-11T01:52:45.343Z,0
2018-07-11T01:53:25.868Z,0
2018-07-11T01:54:07.041Z,0
2018-07-11T01:54:47.578Z,0
2018-07-11T01:55:28.101Z,0
2018-07-11T01:56:08.627Z,0
2018-07-11T01:56:49.157Z,0
2018-07-11T01:57:29.691Z,0
2018-07-11T01:58:10.220Z,0
2018-07-11T01:58:50.744Z,0
2018-07-11T01:59:31.281Z,0
2018-07-11T02:00:11.799Z,0
2018-07-11T02:00:52.316Z,0
2018-07-11T02:01:32.840Z,0
2018-07-11T02:02:13.351Z,0
2018-07-11T02:02:53.899Z,0
2018-07-11T02:03:34.431Z,0
2018-07-11T02:04:14.948Z,0
2018-07-11T02:04:55.461Z,0
2018-07-11T02:05:35.982Z,0
2018-07-11T02:06:16.504Z,0
2018-07-11T02:06:57.054Z,0
2018-07-11T02:07:37.600Z,0
2018-07-11T02:08:18.089Z,0
2018-07-11T02:08:58.612Z,0
2018-07-11T02:09:39.138Z,0
2018-07-11T02:10:19.654Z,0
2018-07-11T02:11:00.176Z,0
2018-07-11T02:11:40.699Z,0
2018-07-11T02:12:21.211Z,0
2018-07-11T02:13:01.741Z,0
2018-07-11T02:13:42.278Z,0
2018-07-11T02:14:22.788Z,0
2018-07-11T02:15:03.301Z,0
2018-07-11T02:15:43.817Z,0
2018-07-11T02:16:24.336Z,0
2018-07-11T02:17:04.874Z,0
2018-07-11T02:17:45.415Z,0
2018-07-11T02:18:25.932Z,0
2018-07-11T02:19:06.459Z,0
2018-07-11T02:19:46.983Z,0
2018-07-11T02:20:27.505Z,0
2018-07-11T02:21:08.033Z,0
2018-07-11T02:21:48.558Z,0
2018-07-11T02:22:29.071Z,0
2018-07-11T02:23:09.598Z,0
2018-07-11T02:23:50.117Z,0
2018-07-11T02:24:30.648Z,0
2018-07-11T02:25:11.173Z,0
2018-07-11T02:25:51.711Z,0
2018-07-11T02:26:32.219Z,0
2018-07-11T02:27:12.734Z,0
2018-07-11T02:27:53.247Z,0
2018-07-11T02:28:34.448Z,0
2018-07-11T02:29:14.275Z,0
2018-07-11T02:29:54.799Z,0
2018-07-11T02:30:35.340Z,0
2018-07-11T02:31:15.835Z,0
2018-07-11T02:31:56.360Z,0
2018-07-11T02:32:36.874Z,0
2018-07-11T02:33:17.398Z,0
2018-07-11T02:33:57.910Z,0
2018-07-11T02:34:38.441Z,0
2018-07-11T02:35:18.964Z,0
2018-07-11T02:35:59.485Z,0
2018-07-11T02:36:40.014Z,0
2018-07-11T02:37:20.535Z,0
2018-07-11T02:38:01.067Z,0
2018-07-11T02:38:41.590Z,0
2018-07-11T02:39:22.109Z,0
2018-07-11T02:40:02.621Z,0
2018-07-11T02:40:43.129Z,0
2018-07-11T02:41:23.651Z,0
2018-07-11T02:42:04.174Z,0
2018-07-11T02:42:44.687Z,0
2018-07-11T02:43:25.199Z,0
2018-07-11T02:44:05.732Z,0
2018-07-11T02:44:46.256Z,0
2018-07-11T02:45:26.776Z,0
2018-07-11T02:46:07.295Z,0
2018-07-11T02:46:47.847Z,0
2018-07-11T02:47:28.383Z,0
2018-07-11T02:48:08.895Z,0
2018-07-11T02:48:49.431Z,0
2018-07-11T02:49:29.961Z,0
2018-07-11T02:50:10.485Z,0
2018-07-11T02:50:51.008Z,0
2018-07-11T02:51:31.519Z,0
2018-07-11T02:52:12.038Z,0
2018-07-11T02:52:52.558Z,0
2018-07-11T02:53:33.103Z,0
2018-07-11T02:54:13.604Z,0
2018-07-11T02:54:54.150Z,0
2018-07-11T02:55:34.665Z,0
2018-07-11T02:56:15.188Z,0
2018-07-11T02:56:55.700Z,0
2018-07-11T02:57:36.224Z,0
2018-07-11T02:58:16.750Z,0
2018-07-11T02:58:57.260Z,0
2018-07-11T02:59:37.784Z,0
2018-07-11T03:00:18.306Z,0
2018-07-11T03:00:58.892Z,0
2018-07-11T03:01:39.428Z,0
2018-07-11T03:02:19.941Z,0
2018-07-11T03:03:00.475Z,0
2018-07-11T03:03:40.996Z,0
2018-07-11T03:04:21.511Z,0
2018-07-11T03:05:02.030Z,0
2018-07-11T03:05:42.566Z,0
2018-07-11T03:06:23.084Z,0
2018-07-11T03:07:03.604Z,0
2018-07-11T03:07:44.140Z,0
2018-07-11T03:08:24.665Z,0
2018-07-11T03:09:05.188Z,0
2018-07-11T03:09:45.736Z,0
2018-07-11T03:10:26.227Z,0
2018-07-11T03:11:06.766Z,0
2018-07-11T03:11:47.280Z,0
2018-07-11T03:12:27.833Z,0
2018-07-11T03:13:08.314Z,0
2018-07-11T03:13:48.834Z,0
2018-07-11T03:14:29.379Z,0
2018-07-11T03:15:09.905Z,0
2018-07-11T03:15:50.434Z,0
2018-07-11T03:16:30.956Z,0
2018-07-11T03:17:11.482Z,0
2018-07-11T03:17:52.001Z,0
2018-07-11T03:18:32.521Z,0
2018-07-11T03:19:13.056Z,0
2018-07-11T03:19:53.590Z,0
2018-07-11T03:20:34.109Z,0
2018-07-11T03:21:14.630Z,0
2018-07-11T03:21:55.155Z,0
2018-07-11T03:22:35.688Z,0
2018-07-11T03:23:16.205Z,0
2018-07-11T03:23:56.722Z,0
2018-07-11T03:24:37.243Z,0
2018-07-11T03:25:17.773Z,0
2018-07-11T03:25:58.293Z,0
2018-07-11T03:26:38.811Z,0
2018-07-11T03:27:19.328Z,0
2018-07-11T03:27:59.854Z,0
2018-07-11T03:28:40.374Z,0
2018-07-11T03:29:20.902Z,0
2018-07-11T03:30:01.434Z,0
2018-07-11T03:30:41.994Z,0
2018-07-11T03:31:22.509Z,0
2018-07-11T03:32:03.020Z,0
2018-07-11T03:32:43.542Z,0
2018-07-11T03:33:24.071Z,0
2018-07-11T03:34:04.598Z,0
2018-07-11T03:34:45.119Z,0
2018-07-11T03:35:25.645Z,0
2018-07-11T03:36:06.158Z,0
2018-07-11T03:36:46.680Z,0
2018-07-11T03:37:27.190Z,0
2018-07-11T03:38:07.716Z,0
2018-07-11T03:38:48.269Z,0
2018-07-11T03:39:28.785Z,0
2018-07-11T03:40:09.311Z,0
2018-07-11T03:40:49.816Z,0
2018-07-11T03:41:30.321Z,0
2018-07-11T03:42:10.841Z,0
2018-07-11T03:42:51.378Z,0
2018-07-11T03:43:31.885Z,0
2018-07-11T03:44:12.414Z,0
2018-07-11T03:44:52.945Z,0
2018-07-11T03:45:33.461Z,0
2018-07-11T03:46:13.981Z,0
2018-07-11T03:46:54.507Z,0
2018-07-11T03:47:35.036Z,0
2018-07-11T03:48:15.572Z,0
2018-07-11T03:48:56.101Z,0
2018-07-11T03:49:36.621Z,0
2018-07-11T03:50:17.145Z,0
2018-07-11T03:50:57.667Z,0
2018-07-11T03:51:38.194Z,0
2018-07-11T03:52:21.120Z,0
2018-07-11T03:53:01.001Z,0
2018-07-11T03:53:41.509Z,0
2018-07-11T03:54:22.004Z,0
2018-07-11T03:55:02.517Z,0
2018-07-11T03:55:43.047Z,0
2018-07-11T03:56:23.588Z,0
2018-07-11T03:57:04.105Z,0
2018-07-11T03:57:44.601Z,0
2018-07-11T03:58:25.167Z,0
2018-07-11T03:59:05.676Z,0
2018-07-11T03:59:46.174Z,0
2018-07-11T04:00:26.695Z,5
2018-07-11T04:01:07.216Z,5
2018-07-11T04:01:47.793Z,5
2018-07-11T04:02:28.418Z,5
2018-07-11T04:03:08.812Z,5
2018-07-11T04:03:49.334Z,5
2018-07-11T04:04:29.861Z,5
2018-07-11T04:05:10.388Z,5
2018-07-11T04:05:50.935Z,5
2018-07-11T04:06:31.424Z,5
2018-07-11T04:07:11.947Z,5
2018-07-11T04:07:52.459Z,5
2018-07-11T04:08:33.021Z,5
2018-07-11T04:09:13.495Z,5
2018-07-11T04:09:53.999Z,5
2018-07-11T04:10:34.507Z,5
2018-07-11T04:11:15.018Z,5
2018-07-11T04:11:55.546Z,5
2018-07-11T04:12:36.084Z,5
2018-07-11T04:13:16.612Z,5
2018-07-11T04:13:57.130Z,5
2018-07-11T04:14:37.642Z,5
2018-07-11T04:15:18.149Z,5
2018-07-11T04:15:58.674Z,5
2018-07-11T04:16:39.213Z,10
2018-07-11T04:17:19.731Z,10
2018-07-11T04:18:00.283Z,10
2018-07-11T04:18:40.807Z,10
2018-07-11T04:19:21.313Z,10
2018-07-11T04:20:01.845Z,10
2018-07-11T04:20:42.358Z,10
2018-07-11T04:21:22.885Z,10
2018-07-11T04:22:03.410Z,10
2018-07-11T04:22:43.937Z,10
2018-07-11T04:23:24.471Z,10
2018-07-11T04:24:05.001Z,5
2018-07-11T04:24:45.514Z,5
2018-07-11T04:25:26.025Z,5
2018-07-11T04:26:06.540Z,5
2018-07-11T04:26:47.059Z,5
2018-07-11T04:27:27.581Z,5
2018-07-11T04:28:08.105Z,5
2018-07-11T04:28:48.666Z,5
2018-07-11T04:29:29.170Z,5
2018-07-11T04:30:09.697Z,5
2018-07-11T04:30:50.216Z,5
2018-07-11T04:31:30.740Z,5
2018-07-11T04:32:11.263Z,5
2018-07-11T04:32:51.784Z,5
2018-07-11T04:33:32.391Z,5
2018-07-11T04:34:12.839Z,5
2018-07-11T04:34:53.362Z,5
2018-07-11T04:35:33.900Z,5
2018-07-11T04:36:14.423Z,5
2018-07-11T04:36:54.940Z,5
2018-07-11T04:37:35.451Z,5
2018-07-11T04:38:15.975Z,5
2018-07-11T04:38:56.483Z,5
2018-07-11T04:39:36.997Z,5
2018-07-11T04:40:17.516Z,5
2018-07-11T04:40:58.045Z,5
2018-07-11T04:41:38.578Z,5
2018-07-11T04:42:19.080Z,5
2018-07-11T04:42:59.593Z,5
2018-07-11T04:43:40.113Z,5
2018-07-11T04:44:20.689Z,5
2018-07-11T04:45:01.210Z,5
2018-07-11T04:45:41.728Z,10
2018-07-11T04:46:22.251Z,10
2018-07-11T04:47:02.816Z,10
2018-07-11T04:47:43.335Z,10
2018-07-11T04:48:23.852Z,10
2018-07-11T04:49:04.380Z,10
2018-07-11T04:49:44.906Z,10
2018-07-11T04:50:25.427Z,10
2018-07-11T04:51:05.955Z,15
2018-07-11T04:51:46.472Z,15
2018-07-11T04:52:27.049Z,15
2018-07-11T04:53:07.557Z,15
2018-07-11T04:53:48.107Z,15
2018-07-11T04:54:28.628Z,15
2018-07-11T04:55:09.153Z,20
2018-07-11T04:55:49.682Z,20
2018-07-11T04:56:30.204Z,20
2018-07-11T04:57:10.742Z,20
2018-07-11T04:57:51.274Z,20
2018-07-11T04:58:31.788Z,20
2018-07-11T04:59:12.312Z,20
2018-07-11T04:59:52.834Z,15
2018-07-11T05:00:33.349Z,20
2018-07-11T05:01:13.874Z,20
2018-07-11T05:01:54.391Z,20
2018-07-11T05:02:34.921Z,20
2018-07-11T05:03:15.440Z,20
2018-07-11T05:03:55.974Z,20
2018-07-11T05:04:36.514Z,20
2018-07-11T05:05:17.031Z,20
2018-07-11T05:05:57.562Z,20
2018-07-11T05:06:38.079Z,20
2018-07-11T05:07:18.594Z,20
2018-07-11T05:07:59.115Z,20
2018-07-11T05:08:39.639Z,20
2018-07-11T05:09:20.145Z,20
2018-07-11T05:10:00.659Z,10
2018-07-11T05:10:41.189Z,35
2018-07-11T05:11:21.697Z,35
2018-07-11T05:12:02.250Z,35
2018-07-11T05:12:42.758Z,40
2018-07-11T05:13:23.290Z,40
2018-07-11T05:14:03.813Z,40
2018-07-11T05:14:44.321Z,40
2018-07-11T05:15:24.843Z,40
2018-07-11T05:16:05.364Z,35
2018-07-11T05:16:45.841Z,35
2018-07-11T05:17:26.347Z,35
2018-07-11T05:18:06.859Z,35
2018-07-11T05:18:47.395Z,30
2018-07-11T05:19:27.893Z,30
2018-07-11T05:20:08.408Z,30
2018-07-11T05:20:48.928Z,25
2018-07-11T05:21:29.458Z,25
2018-07-11T05:22:09.990Z,25
2018-07-11T05:22:50.530Z,25
2018-07-11T05:23:31.150Z,25
2018-07-11T05:24:11.601Z,25
2018-07-11T05:24:52.120Z,20
2018-07-11T05:25:32.657Z,20
2018-07-11T05:26:13.185Z,20
2018-07-11T05:26:53.697Z,20
2018-07-11T05:27:34.213Z,20
2018-07-11T05:28:14.702Z,20
2018-07-11T05:28:55.235Z,20
2018-07-11T05:29:35.766Z,25
2018-07-11T05:30:16.271Z,25
2018-07-11T05:30:56.780Z,25
2018-07-11T05:31:37.307Z,25
2018-07-11T05:32:17.876Z,25
2018-07-11T05:32:58.408Z,25
2018-07-11T05:33:38.955Z,25
2018-07-11T05:34:19.473Z,25
2018-07-11T05:35:00.006Z,25
2018-07-11T05:35:40.516Z,25
2018-07-11T05:36:21.109Z,25
2018-07-11T05:37:01.566Z,25
2018-07-11T05:37:42.069Z,25
2018-07-11T05:38:22.586Z,25
2018-07-11T05:39:03.105Z,25
2018-07-11T05:39:43.642Z,25
2018-07-11T05:40:24.179Z,30
2018-07-11T05:41:04.721Z,30
2018-07-11T05:41:45.254Z,30
2018-07-11T05:42:25.870Z,30
2018-07-11T05:43:06.327Z,35
2018-07-11T05:43:46.823Z,40
2018-07-11T05:44:27.363Z,40
2018-07-11T05:45:07.889Z,40
2018-07-11T05:45:48.420Z,45
2018-07-11T05:46:28.936Z,45
2018-07-11T05:47:09.457Z,45
2018-07-11T05:47:49.985Z,45
2018-07-11T05:48:30.547Z,45
2018-07-11T05:49:11.063Z,45
2018-07-11T05:49:51.586Z,45
2018-07-11T05:50:32.112Z,45
2018-07-11T05:51:12.659Z,45
2018-07-11T05:51:53.206Z,45
2018-07-11T05:52:33.733Z,45
2018-07-11T05:53:14.259Z,50
2018-07-11T05:53:54.771Z,55
2018-07-11T05:54:35.311Z,60
2018-07-11T05:55:15.848Z,65
2018-07-11T05:55:56.453Z,65
2018-07-11T05:56:36.961Z,70
2018-07-11T05:57:17.521Z,70
2018-07-11T05:57:58.044Z,75
2018-07-11T05:58:38.548Z,75
2018-07-11T05:59:19.104Z,75
2018-07-11T05:59:59.649Z,80
2018-07-11T06:00:40.234Z,85
2018-07-11T06:01:21.627Z,90
2018-07-11T06:02:02.121Z,100
2018-07-11T06:02:42.627Z,100
2018-07-11T06:03:23.123Z,105
2018-07-11T06:04:03.640Z,115
2018-07-11T06:04:44.152Z,130
2018-07-11T06:05:24.751Z,130
2018-07-11T06:06:05.204Z,120
2018-07-11T06:06:45.703Z,120
2018-07-11T06:07:26.265Z,125
2018-07-11T06:08:06.788Z,100
2018-07-11T06:08:47.298Z,90
2018-07-11T06:09:27.812Z,90
2018-07-11T06:10:08.377Z,85
2018-07-11T06:10:48.888Z,85
2018-07-11T06:11:29.403Z,95
2018-07-11T06:12:09.920Z,90
2018-07-11T06:12:50.458Z,90
2018-07-11T06:13:31.033Z,95
2018-07-11T06:14:11.482Z,105
2018-07-11T06:14:52.080Z,135
2018-07-11T06:15:32.575Z,145
2018-07-11T06:16:13.164Z,130
2018-07-11T06:16:53.633Z,150
2018-07-11T06:17:34.140Z,165
2018-07-11T06:18:14.662Z,185
2018-07-11T06:18:55.194Z,195
2018-07-11T06:19:37.551Z,150
2018-07-11T06:20:18.080Z,170
2018-07-11T06:20:58.569Z,140
2018-07-11T06:21:39.094Z,200
2018-07-11T06:22:19.621Z,200
2018-07-11T06:23:00.172Z,200
2018-07-11T06:23:40.672Z,195
2018-07-11T06:24:21.220Z,190
2018-07-11T06:25:01.754Z,190
2018-07-11T06:25:42.294Z,185
2018-07-11T06:26:22.821Z,170
2018-07-11T06:27:03.319Z,180
2018-07-11T06:27:43.855Z,190
2018-07-11T06:28:24.380Z,190
2018-07-11T06:29:04.899Z,190
2018-07-11T06:29:45.433Z,185
2018-07-11T06:30:25.957Z,185
2018-07-11T06:31:06.509Z,185
2018-07-11T06:31:47.010Z,175
2018-07-11T06:32:27.553Z,180
2018-07-11T06:33:08.106Z,185
2018-07-11T06:33:48.676Z,180
2018-07-11T06:34:29.145Z,175
2018-07-11T06:35:09.700Z,175
2018-07-11T06:35:50.190Z,175
2018-07-11T06:36:30.727Z,180
2018-07-11T06:37:11.253Z,180
2018-07-11T06:37:51.845Z,180
2018-07-11T06:38:32.319Z,180
2018-07-11T06:39:12.876Z,185
2018-07-11T06:39:53.381Z,175
2018-07-11T06:40:33.914Z,175
2018-07-11T06:41:14.435Z,175
2018-07-11T06:41:54.973Z,175
2018-07-11T06:42:35.513Z,175
2018-07-11T06:43:16.019Z,180
2018-07-11T06:43:56.543Z,185
2018-07-11T06:44:37.093Z,180
2018-07-11T06:45:17.642Z,180
2018-07-11T06:45:58.159Z,185
2018-07-11T06:46:38.677Z,190
2018-07-11T06:47:19.196Z,190
2018-07-11T06:47:59.822Z,190
2018-07-11T06:48:40.265Z,195
2018-07-11T06:49:20.799Z,195
2018-07-11T06:50:01.296Z,200
2018-07-11T06:50:41.814Z,200
2018-07-11T06:51:22.319Z,190
2018-07-11T06:52:02.891Z,190
2018-07-11T06:52:43.377Z,185
2018-07-11T06:53:23.896Z,185
2018-07-11T06:54:04.428Z,190
2018-07-11T06:54:44.942Z,135
2018-07-11T06:55:25.482Z,135
2018-07-11T06:56:05.994Z,135
2018-07-11T06:56:46.482Z,135
2018-07-11T06:57:27.033Z,130
2018-07-11T06:58:07.531Z,130
2018-07-11T06:58:48.046Z,120
2018-07-11T06:59:28.567Z,120
2018-07-11T07:00:09.101Z,115
2018-07-11T07:00:49.624Z,115
2018-07-11T07:01:30.126Z,115
2018-07-11T07:02:10.662Z,125
2018-07-11T07:02:51.174Z,125
2018-07-11T07:03:31.705Z,120
2018-07-11T07:04:12.206Z,105
2018-07-11T07:04:52.718Z,90
2018-07-11T07:05:33.232Z,75
2018-07-11T07:06:13.759Z,60
2018-07-11T07:06:54.280Z,50
2018-07-11T07:07:34.806Z,45
2018-07-11T07:08:15.318Z,40
2018-07-11T07:08:55.977Z,40
2018-07-11T07:09:36.491Z,35
2018-07-11T07:10:17.036Z,35
2018-07-11T07:10:57.557Z,40
2018-07-11T07:11:38.093Z,40
2018-07-11T07:12:18.622Z,45
2018-07-11T07:12:59.169Z,50
2018-07-11T07:13:39.666Z,60
2018-07-11T07:14:20.166Z,70
2018-07-11T07:15:00.685Z,75
2018-07-11T07:15:41.185Z,70
2018-07-11T07:16:21.705Z,65
2018-07-11T07:17:02.292Z,55
2018-07-11T07:17:42.811Z,50
2018-07-11T07:18:23.346Z,50
2018-07-11T07:19:03.920Z,50
2018-07-11T07:19:44.441Z,45
2018-07-11T07:20:24.951Z,40
2018-07-11T07:21:05.500Z,40
2018-07-11T07:21:46.018Z,40
2018-07-11T07:22:26.536Z,40
2018-07-11T07:23:07.047Z,45
2018-07-11T07:23:47.564Z,50
2018-07-11T07:24:28.102Z,55
2018-07-11T07:25:08.609Z,60
2018-07-11T07:25:49.154Z,70
2018-07-11T07:26:29.674Z,70
2018-07-11T07:27:10.201Z,70
2018-07-11T07:27:50.730Z,70
2018-07-11T07:28:31.274Z,75
2018-07-11T07:29:11.888Z,80
2018-07-11T07:29:52.329Z,85
2018-07-11T07:30:32.845Z,90
2018-07-11T07:31:13.371Z,90
2018-07-11T07:31:53.905Z,95
2018-07-11T07:32:34.424Z,100
2018-07-11T07:33:14.945Z,100
2018-07-11T07:33:55.491Z,105
2018-07-11T07:34:36.100Z,115
2018-07-11T07:35:16.632Z,115
2018-07-11T07:35:57.173Z,115
2018-07-11T07:36:37.716Z,110
2018-07-11T07:37:18.235Z,105
2018-07-11T07:37:58.743Z,100
2018-07-11T07:38:39.258Z,100
2018-07-11T07:39:19.780Z,100
2018-07-11T07:40:00.297Z,100
2018-07-11T07:40:40.817Z,100
2018-07-11T07:41:21.338Z,100
2018-07-11T07:42:01.847Z,100
2018-07-11T07:42:42.367Z,100
2018-07-11T07:43:22.874Z,95
2018-07-11T07:44:03.390Z,95
2018-07-11T07:44:43.911Z,95
2018-07-11T07:45:24.424Z,95
2018-07-11T07:46:04.959Z,100
2018-07-11T07:46:45.464Z,105
2018-07-11T07:47:25.996Z,110
2018-07-11T07:48:06.515Z,115
2018-07-11T07:48:47.009Z,120
2018-07-11T07:49:27.532Z,125
2018-07-11T07:50:08.055Z,120
2018-07-11T07:50:48.568Z,120
2018-07-11T07:51:29.084Z,130
2018-07-11T07:52:09.606Z,175
2018-07-11T07:52:50.168Z,120
2018-07-11T07:53:30.674Z,110
2018-07-11T07:54:11.175Z,100
2018-07-11T07:54:51.694Z,100
2018-07-11T07:55:32.210Z,90
2018-07-11T07:56:12.712Z,85
2018-07-11T07:56:53.239Z,80
2018-07-11T07:57:33.785Z,75
2018-07-11T07:58:14.304Z,75
2018-07-11T07:58:54.806Z,75
2018-07-11T07:59:35.334Z,80
2018-07-11T08:00:15.884Z,85
2018-07-11T08:00:56.352Z,90
2018-07-11T08:01:36.902Z,95
2018-07-11T08:02:17.417Z,105
2018-07-11T08:02:57.938Z,100
2018-07-11T08:03:38.440Z,120
2018-07-11T08:04:18.951Z,140
2018-07-11T08:04:59.478Z,145
2018-07-11T08:05:39.992Z,150
2018-07-11T08:06:20.560Z,140
2018-07-11T08:07:01.213Z,140
2018-07-11T08:07:41.702Z,135
2018-07-11T08:08:22.221Z,130
2018-07-11T08:09:02.746Z,130
2018-07-11T08:09:43.297Z,75
2018-07-11T08:10:23.838Z,65
2018-07-11T08:11:04.368Z,65
2018-07-11T08:11:44.912Z,60
2018-07-11T08:12:25.464Z,60
2018-07-11T08:13:05.952Z,55
2018-07-11T08:13:46.488Z,55
2018-07-11T08:14:27.005Z,55
2018-07-11T08:15:07.524Z,60
2018-07-11T08:15:48.069Z,60
2018-07-11T08:16:28.591Z,60
2018-07-11T08:17:09.119Z,60
2018-07-11T08:17:49.664Z,60
2018-07-11T08:18:30.209Z,60
2018-07-11T08:19:10.728Z,65
2018-07-11T08:19:51.244Z,65
2018-07-11T08:20:31.761Z,85
2018-07-11T08:21:12.295Z,70
2018-07-11T08:21:52.846Z,75
2018-07-11T08:22:33.359Z,75
2018-07-11T08:23:13.930Z,80
2018-07-11T08:23:54.450Z,80
2018-07-11T08:24:34.976Z,80
2018-07-11T08:25:15.506Z,80
2018-07-11T08:25:56.012Z,85
2018-07-11T08:26:36.572Z,85
2018-07-11T08:27:17.126Z,90
2018-07-11T08:27:57.613Z,90
2018-07-11T08:28:38.131Z,90
2018-07-11T08:29:19.590Z,95
2018-07-11T08:30:00.082Z,125
2018-07-11T08:30:40.601Z,110
2018-07-11T08:31:21.186Z,105
2018-07-11T08:32:01.765Z,105
2018-07-11T08:32:42.187Z,120
2018-07-11T08:33:22.709Z,125
2018-07-11T08:34:03.288Z,125
2018-07-11T08:34:43.911Z,125
2018-07-11T08:35:24.346Z,125
2018-07-11T08:36:04.863Z,125
2018-07-11T08:36:45.369Z,130
2018-07-11T08:37:25.875Z,130
2018-07-11T08:38:06.379Z,135
2018-07-11T08:38:46.904Z,140
2018-07-11T08:39:27.416Z,145
2018-07-11T08:40:07.944Z,150
2018-07-11T08:40:48.459Z,150
2018-07-11T08:41:28.974Z,155
2018-07-11T08:42:09.483Z,140
2018-07-11T08:42:50.038Z,150
2018-07-11T08:43:30.573Z,145
2018-07-11T08:44:11.098Z,140
2018-07-11T08:44:51.629Z,130
2018-07-11T08:45:32.141Z,125
2018-07-11T08:46:12.705Z,120
2018-07-11T08:46:53.217Z,90
2018-07-11T08:47:33.748Z,80
2018-07-11T08:48:14.409Z,70
2018-07-11T08:48:54.785Z,65
2018-07-11T08:49:35.302Z,60
2018-07-11T08:50:15.823Z,55
2018-07-11T08:50:56.340Z,55
2018-07-11T08:51:36.866Z,55
2018-07-11T08:52:17.496Z,55
2018-07-11T08:52:58.017Z,55
2018-07-11T08:53:38.511Z,55
2018-07-11T08:54:19.085Z,60
2018-07-11T08:54:59.524Z,60
2018-07-11T08:55:40.022Z,65
2018-07-11T08:56:20.536Z,70
2018-07-11T08:57:01.048Z,75
2018-07-11T08:57:41.565Z,80
2018-07-11T08:58:22.084Z,90
2018-07-11T08:59:02.594Z,95
2018-07-11T08:59:43.116Z,100
2018-07-11T09:00:23.630Z,110
2018-07-11T09:01:04.152Z,110
2018-07-11T09:01:44.699Z,120
2018-07-11T09:02:25.226Z,110
2018-07-11T09:03:05.743Z,105
2018-07-11T09:03:46.263Z,100
2018-07-11T09:04:26.833Z,105
2018-07-11T09:05:07.327Z,95
2018-07-11T09:05:47.859Z,95
2018-07-11T09:06:28.383Z,95
2018-07-11T09:07:08.894Z,90
2018-07-11T09:07:49.415Z,90
2018-07-11T09:08:29.922Z,85
2018-07-11T09:09:10.434Z,85
2018-07-11T09:09:50.954Z,85
2018-07-11T09:10:31.610Z,85
2018-07-11T09:11:12.000Z,85
2018-07-11T09:11:54.231Z,90
2018-07-11T09:12:34.648Z,90
2018-07-11T09:13:15.213Z,90
2018-07-11T09:13:55.680Z,90
2018-07-11T09:14:36.202Z,90
2018-07-11T09:15:16.721Z,90
2018-07-11T09:15:57.231Z,90
2018-07-11T09:16:37.770Z,90
2018-07-11T09:17:18.280Z,90
2018-07-11T09:17:58.821Z,95
2018-07-11T09:18:39.367Z,100
2018-07-11T09:19:19.856Z,100
2018-07-11T09:20:00.382Z,105
2018-07-11T09:20:40.911Z,105
2018-07-11T09:21:21.468Z,110
2018-07-11T09:22:02.004Z,110
2018-07-11T09:22:42.521Z,120
2018-07-11T09:23:23.040Z,120
2018-07-11T09:24:03.609Z,125
2018-07-11T09:24:44.110Z,125
2018-07-11T09:25:24.635Z,130
2018-07-11T09:26:05.157Z,130
2018-07-11T09:26:45.690Z,130
2018-07-11T09:27:26.202Z,130
2018-07-11T09:28:06.702Z,130
2018-07-11T09:28:47.244Z,135
2018-07-11T09:29:27.785Z,135
2018-07-11T09:30:08.349Z,135
2018-07-11T09:30:48.863Z,130
2018-07-11T09:31:29.348Z,135
2018-07-11T09:32:09.874Z,130
2018-07-11T09:32:50.384Z,145
2018-07-11T09:33:30.895Z,145
2018-07-11T09:34:11.588Z,140
2018-07-11T09:34:52.120Z,140
2018-07-11T09:35:32.608Z,135
2018-07-11T09:36:13.145Z,135
2018-07-11T09:36:53.670Z,135
2018-07-11T09:37:34.213Z,135
2018-07-11T09:38:14.704Z,130
2018-07-11T09:38:55.207Z,120
2018-07-11T09:39:35.720Z,105
2018-07-11T09:40:16.223Z,95
2018-07-11T09:40:56.757Z,95
2018-07-11T09:41:37.283Z,90
2018-07-11T09:42:17.834Z,90
2018-07-11T09:42:58.343Z,85
2018-07-11T09:43:38.859Z,85
2018-07-11T09:44:19.389Z,85
2018-07-11T09:44:59.945Z,90